createdAt,value
2022-09-26T00:01:32.647Z,2.93
2022-09-26T00:04:02.558Z,2.60
2022-09-26T00:06:30.993Z,2.73
2022-09-26T00:08:58.981Z,2.83
2022-09-26T00:11:29.190Z,3.57
2022-09-26T00:14:00.838Z,3.17
2022-09-26T00:16:30.639Z,2.43
2022-09-26T00:19:00.157Z,2.80
2022-09-26T00:21:30.481Z,2.87
2022-09-26T00:24:00.356Z,2.60
2022-09-26T00:26:30.237Z,2.07
2022-09-26T00:28:59.509Z,3.10
2022-09-26T00:31:32.030Z,2.60
2022-09-26T00:34:00.759Z,2.07
2022-09-26T00:36:37.414Z,3.63
2022-09-26T00:39:09.811Z,2.27
2022-09-26T00:41:43.158Z,2.53
2022-09-26T00:44:46.454Z,2.80
2022-09-26T00:47:38.603Z,1.77
2022-09-26T00:50:13.434Z,3.13
2022-09-26T00:52:46.200Z,3.00
2022-09-26T00:55:16.946Z,2.30
2022-09-26T00:57:51.636Z,2.50
2022-09-26T01:00:20.443Z,2.97
2022-09-26T01:02:50.240Z,2.60
2022-09-26T01:05:21.198Z,2.90
2022-09-26T01:07:50.360Z,2.13
2022-09-26T01:10:18.726Z,2.37
2022-09-26T01:12:46.912Z,2.37
2022-09-26T01:15:15.354Z,2.60
2022-09-26T01:17:45.300Z,2.57
2022-09-26T01:20:33.000Z,2.33
2022-09-26T01:23:44.181Z,2.07
2022-09-26T01:26:46.605Z,2.37
2022-09-26T01:29:57.815Z,1.80
2022-09-26T01:32:50.677Z,2.30
2022-09-26T01:35:33.558Z,1.80
2022-09-26T01:38:13.294Z,2.03
2022-09-26T01:40:46.433Z,2.03
2022-09-26T01:43:22.074Z,2.53
2022-09-26T01:45:54.610Z,2.40
2022-09-26T01:48:31.988Z,2.17
2022-09-26T01:51:05.159Z,2.90
2022-09-26T01:53:39.339Z,2.47
2022-09-26T01:56:12.702Z,2.00
2022-09-26T01:58:45.641Z,1.60
2022-09-26T02:01:17.773Z,2.90
2022-09-26T02:03:50.795Z,1.90
2022-09-26T02:06:24.372Z,2.20
2022-09-26T02:08:56.048Z,2.77
2022-09-26T02:11:24.706Z,2.87
2022-09-26T02:13:56.735Z,3.03
2022-09-26T02:16:28.756Z,2.03
2022-09-26T02:19:02.612Z,2.20
2022-09-26T02:21:30.624Z,2.10
2022-09-26T02:23:58.710Z,2.67
2022-09-26T02:26:26.826Z,2.67
2022-09-26T02:28:54.828Z,2.73
2022-09-26T02:31:27.325Z,3.07
2022-09-26T02:33:57.354Z,2.63
2022-09-26T02:36:25.473Z,3.07
2022-09-26T02:38:53.432Z,2.07
2022-09-26T02:41:29.612Z,2.17
2022-09-26T02:44:12.878Z,2.43
2022-09-26T02:47:01.021Z,1.60
2022-09-26T02:49:53.916Z,2.47
2022-09-26T02:52:37.492Z,1.83
2022-09-26T02:55:16.111Z,2.23
2022-09-26T02:57:53.191Z,2.40
2022-09-26T03:00:25.436Z,1.97
2022-09-26T03:02:59.614Z,2.30
2022-09-26T03:05:31.608Z,1.70
2022-09-26T03:08:05.832Z,2.80
2022-09-26T03:10:35.435Z,2.37
2022-09-26T03:13:08.641Z,2.67
2022-09-26T03:15:38.910Z,2.10
2022-09-26T03:18:10.913Z,2.03
2022-09-26T03:20:40.896Z,2.60
2022-09-26T03:23:09.671Z,2.30
2022-09-26T03:25:38.183Z,2.00
2022-09-26T03:28:06.373Z,2.00
2022-09-26T03:30:35.049Z,2.13
2022-09-26T03:33:03.275Z,1.90
2022-09-26T03:35:31.227Z,2.57
2022-09-26T03:38:00.476Z,2.10
2022-09-26T03:40:28.469Z,1.83
2022-09-26T03:42:56.473Z,1.47
2022-09-26T03:45:24.456Z,1.80
2022-09-26T03:47:57.149Z,1.47
2022-09-26T03:50:25.334Z,2.40
2022-09-26T03:52:53.443Z,3.03
2022-09-26T03:55:22.715Z,2.80
2022-09-26T03:57:50.656Z,2.20
2022-09-26T04:00:18.796Z,2.00
2022-09-26T04:02:46.760Z,2.20
2022-09-26T04:05:14.756Z,3.00
2022-09-26T04:07:44.550Z,1.83
2022-09-26T04:10:13.100Z,2.73
2022-09-26T04:12:42.424Z,2.70
2022-09-26T04:15:11.233Z,2.50
2022-09-26T04:17:39.149Z,2.97
2022-09-26T04:20:07.580Z,2.30
2022-09-26T04:22:35.514Z,1.90
2022-09-26T04:25:03.446Z,1.70
2022-09-26T04:27:31.413Z,3.00
2022-09-26T04:30:00.735Z,1.93
2022-09-26T04:32:28.601Z,2.00
2022-09-26T04:34:56.545Z,3.20
2022-09-26T04:37:25.483Z,2.27
2022-09-26T04:39:53.790Z,2.40
2022-09-26T04:42:21.734Z,1.90
2022-09-26T04:44:49.664Z,2.10
2022-09-26T04:47:18.949Z,2.00
2022-09-26T04:49:46.896Z,2.43
2022-09-26T04:52:15.205Z,2.17
2022-09-26T04:54:44.731Z,2.40
2022-09-26T04:57:18.773Z,2.03
2022-09-26T04:59:47.642Z,1.97
2022-09-26T05:02:15.798Z,2.63
2022-09-26T05:04:48.094Z,2.13
2022-09-26T05:07:16.569Z,2.57
2022-09-26T05:09:45.316Z,2.37
2022-09-26T05:12:13.414Z,2.93
2022-09-26T05:14:42.171Z,1.60
2022-09-26T05:17:11.739Z,2.03
2022-09-26T05:19:39.717Z,2.83
2022-09-26T05:22:08.992Z,2.33
2022-09-26T05:24:54.434Z,2.00
2022-09-26T05:27:23.946Z,2.60
2022-09-26T05:29:56.425Z,1.70
2022-09-26T05:32:24.437Z,1.80
2022-09-26T05:34:52.600Z,2.10
2022-09-26T05:37:21.874Z,2.77
2022-09-26T05:40:07.236Z,1.67
2022-09-26T05:42:35.239Z,1.77
2022-09-26T05:45:03.211Z,1.83
2022-09-26T05:47:36.195Z,2.30
2022-09-26T05:50:05.044Z,2.00
2022-09-26T05:52:34.313Z,2.33
2022-09-26T05:55:02.259Z,2.30
2022-09-26T05:57:30.204Z,2.43
2022-09-26T05:59:58.150Z,3.10
2022-09-26T06:02:26.317Z,2.60
2022-09-26T06:04:55.622Z,1.90
2022-09-26T06:07:23.570Z,2.33
2022-09-26T06:09:53.345Z,1.70
2022-09-26T06:12:21.360Z,1.97
2022-09-26T06:14:49.422Z,2.20
2022-09-26T06:17:17.356Z,3.00
2022-09-26T06:19:45.468Z,2.17
2022-09-26T06:22:13.343Z,2.50
2022-09-26T06:24:41.272Z,1.77
2022-09-26T06:27:10.533Z,1.40
2022-09-26T06:29:38.459Z,1.97
2022-09-26T06:32:06.433Z,2.03
2022-09-26T06:34:34.524Z,2.10
2022-09-26T06:37:02.479Z,1.37
2022-09-26T06:39:35.680Z,2.60
2022-09-26T06:42:05.699Z,1.87
2022-09-26T06:44:35.227Z,1.97
2022-09-26T06:47:03.189Z,2.10
2022-09-26T06:49:32.611Z,2.07
2022-09-26T06:52:00.512Z,2.17
2022-09-26T06:54:28.401Z,2.60
2022-09-26T06:56:56.362Z,1.50
2022-09-26T06:59:25.100Z,2.27
2022-09-26T07:01:54.377Z,1.60
2022-09-26T07:04:27.210Z,1.70
2022-09-26T07:06:55.128Z,2.40
2022-09-26T07:09:23.027Z,1.40
2022-09-26T07:12:13.544Z,2.30
2022-09-26T07:15:18.775Z,1.63
2022-09-26T07:17:49.171Z,1.40
2022-09-26T07:20:19.111Z,1.67
2022-09-26T07:22:47.706Z,2.43
2022-09-26T07:25:15.721Z,1.37
2022-09-26T07:27:43.646Z,2.70
2022-09-26T07:30:12.304Z,1.57
2022-09-26T07:32:44.224Z,1.57
2022-09-26T07:35:13.858Z,1.60
2022-09-26T07:37:42.829Z,1.97
2022-09-26T07:40:12.025Z,1.80
2022-09-26T07:42:41.838Z,1.80
2022-09-26T07:45:26.167Z,3.10
2022-09-26T07:48:15.374Z,1.50
2022-09-26T07:50:47.448Z,1.40
2022-09-26T07:53:15.429Z,2.57
2022-09-26T07:56:03.370Z,2.40
2022-09-26T07:58:31.434Z,2.70
2022-09-26T08:00:59.495Z,2.30
2022-09-26T08:03:28.565Z,1.40
2022-09-26T08:06:01.125Z,2.10
2022-09-26T08:08:29.743Z,1.80
2022-09-26T08:11:03.630Z,1.70
2022-09-26T08:13:33.672Z,1.97
2022-09-26T08:16:06.194Z,2.30
2022-09-26T08:18:34.560Z,1.73
2022-09-26T08:21:06.247Z,2.07
2022-09-26T08:23:34.412Z,1.97
2022-09-26T08:26:04.820Z,1.33
2022-09-26T08:28:32.759Z,1.80
2022-09-26T08:31:03.053Z,1.53
2022-09-26T08:33:32.446Z,1.30
2022-09-26T08:36:06.553Z,1.40
2022-09-26T08:38:35.641Z,1.60
2022-09-26T08:41:12.143Z,1.30
2022-09-26T08:43:58.422Z,1.80
2022-09-26T08:46:48.440Z,1.30
2022-09-26T08:49:41.678Z,1.40
2022-09-26T08:52:24.797Z,1.90
2022-09-26T08:54:55.188Z,1.37
2022-09-26T08:57:34.206Z,1.60
2022-09-26T09:00:10.072Z,1.50
2022-09-26T09:02:42.114Z,1.37
2022-09-26T09:05:16.091Z,1.97
2022-09-26T09:07:49.818Z,1.40
2022-09-26T09:10:20.922Z,1.60
2022-09-26T09:12:59.450Z,1.97
2022-09-26T09:15:44.340Z,1.40
2022-09-26T09:18:24.353Z,2.40
2022-09-26T09:20:58.602Z,1.80
2022-09-26T09:23:40.042Z,1.53
2022-09-26T09:29:19.157Z,1.70
2022-09-26T09:31:48.225Z,1.67
2022-09-26T09:34:26.444Z,1.50
2022-09-26T09:36:56.958Z,1.50
2022-09-26T09:39:32.354Z,1.30
2022-09-26T09:42:05.674Z,1.60
2022-09-26T09:44:46.490Z,2.00
2022-09-26T09:47:16.583Z,1.60
2022-09-26T09:49:47.753Z,1.90
2022-09-26T09:52:38.278Z,1.67
2022-09-26T09:55:26.559Z,1.47
2022-09-26T09:58:25.046Z,1.30
2022-09-26T10:01:09.805Z,1.90
2022-09-26T10:03:43.081Z,2.30
2022-09-26T10:06:45.443Z,1.20
2022-09-26T10:09:35.571Z,1.60
2022-09-26T10:12:01.468Z,1.80
2022-09-26T10:14:35.986Z,1.60
2022-09-26T10:17:24.509Z,1.40
2022-09-26T10:19:53.179Z,1.30
2022-09-26T10:22:29.967Z,1.60
2022-09-26T10:25:03.633Z,1.33
2022-09-26T10:27:39.284Z,1.70
2022-09-26T10:30:25.772Z,1.40
2022-09-26T10:32:57.048Z,1.50
2022-09-26T10:35:28.833Z,1.47
2022-09-26T10:38:01.594Z,1.50
2022-09-26T10:40:46.674Z,1.40
2022-09-26T10:43:30.720Z,1.43
2022-09-26T10:46:06.995Z,1.53
2022-09-26T10:48:48.185Z,1.23
2022-09-26T10:51:25.653Z,1.40
2022-09-26T10:53:58.084Z,1.30
2022-09-26T10:56:28.998Z,1.37
2022-09-26T10:59:01.041Z,1.60
2022-09-26T11:01:31.994Z,1.20
2022-09-26T11:04:13.309Z,1.50
2022-09-26T11:06:44.125Z,1.13
2022-09-26T11:09:14.029Z,1.10
2022-09-26T11:11:43.118Z,1.00
2022-09-26T11:14:28.253Z,1.20
2022-09-26T11:16:57.694Z,1.33
2022-09-26T11:19:36.361Z,1.30
2022-09-26T11:22:14.318Z,1.10
2022-09-26T11:24:48.357Z,1.33
2022-09-26T11:27:25.261Z,1.27
2022-09-26T11:30:02.193Z,1.37
2022-09-26T11:32:32.746Z,1.10
2022-09-26T11:35:03.614Z,1.60
2022-09-26T11:38:12.907Z,1.50
2022-09-26T11:41:09.496Z,1.23
2022-09-26T11:43:52.340Z,1.33
2022-09-26T11:46:39.208Z,1.37
2022-09-26T11:49:31.206Z,1.10
2022-09-26T11:52:21.388Z,1.30
2022-09-26T11:55:08.180Z,1.47
2022-09-26T11:57:44.017Z,1.50
2022-09-26T12:00:24.486Z,1.10
2022-09-26T12:03:33.350Z,1.00
2022-09-26T12:06:12.683Z,1.10
2022-09-26T12:09:03.551Z,1.10
2022-09-26T12:11:38.097Z,1.10
2022-09-26T12:14:23.146Z,1.00
2022-09-26T12:16:58.706Z,1.10
2022-09-26T12:19:39.636Z,1.00
2022-09-26T12:22:30.954Z,1.30
2022-09-26T12:25:19.249Z,1.10
2022-09-26T12:27:59.281Z,1.20
2022-09-26T12:30:33.409Z,1.00
2022-09-26T12:33:16.232Z,1.10
2022-09-26T12:35:53.873Z,1.10
2022-09-26T12:38:40.611Z,1.23
2022-09-26T12:41:23.246Z,1.20
2022-09-26T12:44:14.655Z,1.30
2022-09-26T12:47:04.846Z,1.20
2022-09-26T12:49:47.653Z,1.13
2022-09-26T12:52:28.641Z,1.63
2022-09-26T12:55:15.237Z,1.00
2022-09-26T12:57:57.143Z,1.33
2022-09-26T13:00:25.437Z,1.40
2022-09-26T13:03:23.632Z,1.20
2022-09-26T13:06:25.564Z,1.30
2022-09-26T13:09:07.754Z,1.10
2022-09-26T13:11:44.639Z,1.27
2022-09-26T13:14:36.373Z,1.80
2022-09-26T13:17:10.547Z,1.10
2022-09-26T13:19:43.469Z,1.23
2022-09-26T13:22:26.062Z,1.83
2022-09-26T13:25:02.811Z,1.00
2022-09-26T13:27:38.341Z,1.10
2022-09-26T13:30:09.164Z,1.10
2022-09-26T13:32:50.210Z,1.00
2022-09-26T13:35:21.695Z,1.20
2022-09-26T13:38:08.539Z,1.00
2022-09-26T13:40:47.747Z,2.03
2022-09-26T13:43:24.786Z,1.20
2022-09-26T13:46:00.627Z,1.10
2022-09-26T13:48:38.614Z,1.30
2022-09-26T13:51:18.350Z,1.40
2022-09-26T13:53:55.157Z,1.17
2022-09-26T13:56:47.890Z,1.07
2022-09-26T13:59:32.429Z,1.43
2022-09-26T14:02:18.331Z,1.60
2022-09-26T14:04:47.955Z,1.10
2022-09-26T14:07:35.889Z,1.20
2022-09-26T14:10:35.288Z,1.00
2022-09-26T14:13:18.189Z,1.00
2022-09-26T14:16:02.304Z,1.40
2022-09-26T14:18:54.995Z,1.10
2022-09-26T14:25:40.726Z,1.73
2022-09-26T14:28:22.921Z,1.57
2022-09-26T14:31:17.156Z,1.70
2022-09-26T14:33:46.544Z,1.00
2022-09-26T14:36:24.523Z,1.27
2022-09-26T14:38:53.768Z,1.10
2022-09-26T14:41:22.972Z,1.10
2022-09-26T14:43:53.295Z,1.07
2022-09-26T14:46:26.134Z,0.97
2022-09-26T14:49:01.349Z,1.10
2022-09-26T14:51:31.887Z,0.93
2022-09-26T14:54:03.662Z,1.00
2022-09-26T14:56:42.745Z,1.20
2022-09-26T14:59:43.678Z,1.00
2022-09-26T15:02:28.763Z,1.00
2022-09-26T15:05:28.325Z,1.00
2022-09-26T15:08:00.432Z,1.30
2022-09-26T15:10:41.582Z,1.10
2022-09-26T15:13:24.173Z,0.90
2022-09-26T15:16:10.016Z,1.20
2022-09-26T15:23:31.937Z,1.10
2022-09-26T15:30:14.234Z,1.40
2022-09-26T15:32:43.932Z,1.20
2022-09-26T15:35:15.486Z,0.93
2022-09-26T15:37:44.075Z,1.20
2022-09-26T15:40:14.326Z,1.60
2022-09-26T15:43:00.791Z,1.50
2022-09-26T15:45:33.375Z,1.10
2022-09-26T15:48:05.203Z,1.50
2022-09-26T15:50:39.664Z,1.30
2022-09-26T15:53:22.879Z,1.23
2022-09-26T15:55:54.254Z,1.10
2022-09-26T15:58:27.302Z,1.50
2022-09-26T16:00:56.184Z,1.00
2022-09-26T16:03:48.359Z,1.97
2022-09-26T16:06:32.111Z,1.00
2022-09-26T16:09:06.300Z,1.13
2022-09-26T16:11:35.601Z,1.40
2022-09-26T16:14:03.877Z,1.17
2022-09-26T16:16:35.483Z,1.20
2022-09-26T16:19:05.418Z,1.00
2022-09-26T16:21:37.583Z,1.00
2022-09-26T16:24:29.530Z,0.90
2022-09-26T16:26:58.126Z,1.20
2022-09-26T16:29:34.800Z,1.10
2022-09-26T16:32:03.892Z,1.10
2022-09-26T16:34:33.849Z,1.53
2022-09-26T16:37:01.870Z,1.43
2022-09-26T16:39:32.533Z,1.33
2022-09-26T16:42:05.633Z,1.77
2022-09-26T16:44:37.244Z,1.30
2022-09-26T16:47:09.286Z,1.20
2022-09-26T16:49:47.234Z,1.10
2022-09-26T16:52:34.378Z,1.37
2022-09-26T16:55:06.055Z,1.90
2022-09-26T16:57:37.619Z,1.30
2022-09-26T17:00:26.829Z,2.13
2022-09-26T17:02:54.905Z,1.27
2022-09-26T17:05:27.374Z,1.23
2022-09-26T17:07:55.532Z,1.30
2022-09-26T17:10:26.512Z,1.47
2022-09-26T17:12:54.684Z,1.10
2022-09-26T17:15:30.364Z,1.27
2022-09-26T17:18:01.026Z,1.00
2022-09-26T17:20:30.669Z,1.10
2022-09-26T17:23:07.962Z,1.13
2022-09-26T17:25:54.122Z,1.67
2022-09-26T17:28:37.772Z,1.10
2022-09-26T17:31:07.773Z,1.00
2022-09-26T17:33:40.779Z,1.57
2022-09-26T17:36:13.530Z,1.47
2022-09-26T17:38:43.329Z,1.60
2022-09-26T17:41:12.560Z,1.20
2022-09-26T17:43:41.023Z,1.43
2022-09-26T17:46:15.610Z,1.60
2022-09-26T17:48:45.506Z,1.20
2022-09-26T17:51:15.920Z,1.50
2022-09-26T17:53:50.509Z,1.60
2022-09-26T17:56:20.115Z,1.50
2022-09-26T17:58:49.375Z,2.20
2022-09-26T18:01:23.599Z,1.30
2022-09-26T18:03:54.519Z,1.80
2022-09-26T18:06:25.990Z,2.63
2022-09-26T18:08:55.927Z,1.67
2022-09-26T18:11:23.993Z,2.67
2022-09-26T18:13:55.363Z,3.40
2022-09-26T18:16:23.956Z,1.93
2022-09-26T18:18:52.507Z,1.67
2022-09-26T18:21:20.929Z,1.20
2022-09-26T18:23:53.096Z,1.70
2022-09-26T18:26:29.157Z,1.57
2022-09-26T18:29:06.496Z,1.10
2022-09-26T18:31:37.563Z,1.00
2022-09-26T18:34:07.537Z,1.20
2022-09-26T18:36:35.506Z,1.80
2022-09-26T18:39:05.026Z,1.23
2022-09-26T18:41:35.250Z,1.63
2022-09-26T18:44:03.616Z,1.50
2022-09-26T18:46:32.086Z,1.20
2022-09-26T18:49:06.212Z,1.30
2022-09-26T18:51:35.095Z,1.30
2022-09-26T18:54:10.727Z,1.17
2022-09-26T18:56:56.844Z,1.30
2022-09-26T18:59:28.878Z,1.20
2022-09-26T19:01:58.511Z,1.10
2022-09-26T19:04:27.242Z,1.20
2022-09-26T19:07:00.898Z,1.00
2022-09-26T19:09:33.430Z,1.10
2022-09-26T19:12:01.618Z,1.40
2022-09-26T19:14:31.777Z,1.37
2022-09-26T19:16:59.916Z,1.10
2022-09-26T19:19:28.635Z,1.27
2022-09-26T19:21:59.316Z,2.13
2022-09-26T19:24:35.337Z,1.10
2022-09-26T19:27:07.359Z,1.20
2022-09-26T19:29:39.756Z,0.97
2022-09-26T19:32:11.642Z,1.10
2022-09-26T19:34:39.664Z,1.23
2022-09-26T19:37:10.479Z,1.33
2022-09-26T19:39:39.930Z,0.93
2022-09-26T19:42:08.015Z,1.10
2022-09-26T19:44:36.041Z,1.40
2022-09-26T19:47:04.747Z,1.20
2022-09-26T19:49:33.159Z,1.30
2022-09-26T19:52:02.509Z,1.20
2022-09-26T19:54:30.544Z,1.50
2022-09-26T19:57:00.244Z,1.40
2022-09-26T19:59:28.385Z,1.20
2022-09-26T20:01:56.700Z,1.20
2022-09-26T20:04:25.836Z,1.20
2022-09-26T20:06:55.257Z,0.90
2022-09-26T20:09:23.328Z,1.00
2022-09-26T20:11:51.358Z,1.27
2022-09-26T20:14:26.961Z,1.43
2022-09-26T20:16:58.421Z,1.50
2022-09-26T20:19:32.654Z,1.10
2022-09-26T20:22:03.311Z,1.10
2022-09-26T20:24:33.527Z,1.40
2022-09-26T20:27:04.258Z,1.37
2022-09-26T20:29:54.365Z,1.47
2022-09-26T20:32:22.388Z,1.03
2022-09-26T20:34:50.541Z,1.40
2022-09-26T20:37:19.815Z,1.20
2022-09-26T20:39:48.438Z,1.30
2022-09-26T20:42:18.757Z,1.07
2022-09-26T20:44:50.283Z,1.10
2022-09-26T20:47:21.246Z,1.30
2022-09-26T20:49:53.460Z,1.10
2022-09-26T20:52:25.007Z,1.20
2022-09-26T20:54:53.580Z,1.13
2022-09-26T20:57:23.145Z,1.30
2022-09-26T20:59:53.117Z,1.00
2022-09-26T21:02:28.133Z,0.93
2022-09-26T21:04:57.032Z,1.23
2022-09-26T21:07:25.380Z,1.13
2022-09-26T21:09:53.435Z,1.20
2022-09-26T21:12:21.409Z,1.47
2022-09-26T21:14:49.551Z,1.30
2022-09-26T21:17:21.813Z,1.00
2022-09-26T21:19:51.424Z,1.10
2022-09-26T21:22:23.766Z,1.10
2022-09-26T21:24:54.022Z,1.23
2022-09-26T21:27:22.831Z,1.20
2022-09-26T21:29:50.838Z,1.20
2022-09-26T21:32:23.951Z,1.07
2022-09-26T21:34:58.920Z,1.30
2022-09-26T21:37:26.992Z,1.23
2022-09-26T21:39:55.211Z,1.30
2022-09-26T21:42:23.342Z,1.17
2022-09-26T21:44:57.862Z,1.10
2022-09-26T21:47:28.064Z,1.30
2022-09-26T21:49:56.159Z,1.00
2022-09-26T21:52:29.799Z,1.37
2022-09-26T21:54:59.510Z,1.00
2022-09-26T21:57:30.184Z,1.10
2022-09-26T21:59:59.570Z,1.10
2022-09-26T22:02:29.039Z,1.00
2022-09-26T22:04:57.166Z,1.10
2022-09-26T22:07:25.108Z,1.30
2022-09-26T22:09:53.109Z,1.10
2022-09-26T22:12:21.092Z,1.10
2022-09-26T22:14:49.178Z,1.50
2022-09-26T22:17:17.211Z,1.10
2022-09-26T22:19:47.527Z,1.20
2022-09-26T22:22:17.302Z,1.13
2022-09-26T22:24:45.316Z,1.10
2022-09-26T22:27:13.798Z,2.03
2022-09-26T22:29:41.942Z,1.20
2022-09-26T22:32:10.202Z,1.17
2022-09-26T22:34:38.337Z,1.00
2022-09-26T22:37:07.802Z,1.20
2022-09-26T22:39:36.221Z,1.30
2022-09-26T22:42:04.422Z,1.17
2022-09-26T22:44:32.493Z,1.33
2022-09-26T22:47:00.737Z,1.10
2022-09-26T22:49:28.733Z,1.30
2022-09-26T22:51:56.696Z,1.20
2022-09-26T22:54:26.177Z,1.50
2022-09-26T22:56:54.381Z,1.17
2022-09-26T22:59:22.487Z,1.00
2022-09-26T23:01:51.646Z,1.20
2022-09-26T23:04:19.755Z,1.20
2022-09-26T23:06:47.741Z,1.07
2022-09-26T23:09:15.848Z,1.10
2022-09-26T23:11:47.081Z,1.17
2022-09-26T23:14:15.035Z,1.20
2022-09-26T23:16:43.096Z,1.20
2022-09-26T23:19:11.143Z,1.20
2022-09-26T23:21:39.143Z,1.10
2022-09-26T23:24:07.586Z,1.10
2022-09-26T23:26:35.611Z,1.17
2022-09-26T23:29:05.208Z,1.10
2022-09-26T23:31:33.254Z,1.10
2022-09-26T23:34:01.320Z,1.10
2022-09-26T23:36:29.596Z,1.10
2022-09-26T23:38:58.745Z,1.17
2022-09-26T23:41:26.795Z,1.30
2022-09-26T23:43:54.830Z,1.10
2022-09-26T23:46:24.235Z,1.10
2022-09-26T23:48:52.655Z,1.33
2022-09-26T23:51:20.699Z,1.20
2022-09-26T23:53:48.798Z,1.10
2022-09-26T23:56:17.017Z,1.00
2022-09-26T23:58:45.232Z,1.20
